Terminal Aerodrome Forecast
Issued by NWS

Home | Current Version | Previous Version | Text Only | Print | Product List | Glossary On
Versions: 1 2 3 4 5 6 7 8 9 10 11 12 13 14 15 16 17 18 19 20 21 22
883
FTUS41 KPBZ 251444 AAA
TAFHLG
TAF AMD
KHLG 251444Z 2515/2612 27010G15KT P6SM SCT025 OVC040
     FM251530 27011G20KT P6SM SCT035 BKN050
     FM251800 28015G25KT P6SM VCSH BKN035
     FM260600 27012KT P6SM BKN035=

USA.gov is the U.S. government's official web portal to all federal, state and local government web resources and services.